sensor_id;sensor_type;location;lat;lon;timestamp;P1;P2;P0
80413;PMS5003;69758;52.580;13.068;2023-09-19T00:00:44;4;4;
80413;PMS5003;69758;52.580;13.068;2023-09-19T00:03:09;2;2;
80413;PMS5003;69758;52.580;13.068;2023-09-19T00:05:35;3;3;
80413;PMS5003;69758;52.580;13.068;2023-09-19T00:07:59;2;2;
80413;PMS5003;69758;52.580;13.068;2023-09-19T00:10:25;4;4;
80413;PMS5003;69758;52.580;13.068;2023-09-19T00:12:50;2;2;
80413;PMS5003;69758;52.580;13.068;2023-09-19T00:15:14;5;4;
80413;PMS5003;69758;52.580;13.068;2023-09-19T00:17:39;3;3;
80413;PMS5003;69758;52.580;13.068;2023-09-19T00:20:05;2;2;
80413;PMS5003;69758;52.580;13.068;2023-09-19T00:22:30;4;4;
80413;PMS5003;69758;52.580;13.068;2023-09-19T00:24:55;2;2;
80413;PMS5003;69758;52.580;13.068;2023-09-19T00:27:20;2;2;
80413;PMS5003;69758;52.580;13.068;2023-09-19T00:29:45;3;3;
80413;PMS5003;69758;52.580;13.068;2023-09-19T00:32:10;3;3;
80413;PMS5003;69758;52.580;13.068;2023-09-19T00:34:35;3;3;
80413;PMS5003;69758;52.580;13.068;2023-09-19T00:37:00;3;3;
80413;PMS5003;69758;52.580;13.068;2023-09-19T00:39:25;2;2;
80413;PMS5003;69758;52.580;13.068;2023-09-19T00:41:50;3;3;
80413;PMS5003;69758;52.580;13.068;2023-09-19T00:44:15;4;3;
80413;PMS5003;69758;52.580;13.068;2023-09-19T00:46:40;3;3;
80413;PMS5003;69758;52.580;13.068;2023-09-19T00:49:06;3;3;
80413;PMS5003;69758;52.580;13.068;2023-09-19T00:51:30;4;4;
80413;PMS5003;69758;52.580;13.068;2023-09-19T00:53:55;2;2;
80413;PMS5003;69758;52.580;13.068;2023-09-19T00:56:20;4;4;
80413;PMS5003;69758;52.580;13.068;2023-09-19T00:58:47;4;3;
80413;PMS5003;69758;52.580;13.068;2023-09-19T01:01:10;3;3;
80413;PMS5003;69758;52.580;13.068;2023-09-19T01:03:36;2;2;
80413;PMS5003;69758;52.580;13.068;2023-09-19T01:06:01;4;4;
80413;PMS5003;69758;52.580;13.068;2023-09-19T01:08:26;2;2;
80413;PMS5003;69758;52.580;13.068;2023-09-19T01:10:51;3;3;
80413;PMS5003;69758;52.580;13.068;2023-09-19T01:13:18;4;3;
80413;PMS5003;69758;52.580;13.068;2023-09-19T01:15:44;3;2;
80413;PMS5003;69758;52.580;13.068;2023-09-19T01:18:10;4;4;
80413;PMS5003;69758;52.580;13.068;2023-09-19T01:20:33;4;3;
80413;PMS5003;69758;52.580;13.068;2023-09-19T01:23:00;2;2;
80413;PMS5003;69758;52.580;13.068;2023-09-19T01:25:35;2;2;
80413;PMS5003;69758;52.580;13.068;2023-09-19T01:30:12;3;3;
80413;PMS5003;69758;52.580;13.068;2023-09-19T01:32:36;3;3;
80413;PMS5003;69758;52.580;13.068;2023-09-19T01:35:01;4;4;
80413;PMS5003;69758;52.580;13.068;2023-09-19T01:37:26;4;4;
80413;PMS5003;69758;52.580;13.068;2023-09-19T01:39:53;3;3;
80413;PMS5003;69758;52.580;13.068;2023-09-19T01:42:20;4;4;
80413;PMS5003;69758;52.580;13.068;2023-09-19T01:44:44;2;2;
80413;PMS5003;69758;52.580;13.068;2023-09-19T01:47:09;4;4;
80413;PMS5003;69758;52.580;13.068;2023-09-19T01:49:33;4;4;
80413;PMS5003;69758;52.580;13.068;2023-09-19T01:52:02;4;4;
80413;PMS5003;69758;52.580;13.068;2023-09-19T01:54:24;4;4;
80413;PMS5003;69758;52.580;13.068;2023-09-19T01:56:48;3;3;
80413;PMS5003;69758;52.580;13.068;2023-09-19T01:59:13;3;3;
80413;PMS5003;69758;52.580;13.068;2023-09-19T02:01:37;3;3;
80413;PMS5003;69758;52.580;13.068;2023-09-19T02:04:02;4;3;
80413;PMS5003;69758;52.580;13.068;2023-09-19T02:06:27;2;2;
80413;PMS5003;69758;52.580;13.068;2023-09-19T02:08:53;2;2;
80413;PMS5003;69758;52.580;13.068;2023-09-19T02:11:18;4;4;
80413;PMS5003;69758;52.580;13.068;2023-09-19T02:13:43;3;3;
80413;PMS5003;69758;52.580;13.068;2023-09-19T02:16:08;2;2;
80413;PMS5003;69758;52.580;13.068;2023-09-19T02:18:33;2;2;
80413;PMS5003;69758;52.580;13.068;2023-09-19T02:20:58;3;3;
80413;PMS5003;69758;52.580;13.068;2023-09-19T02:23:23;3;3;
80413;PMS5003;69758;52.580;13.068;2023-09-19T02:25:52;5;5;
80413;PMS5003;69758;52.580;13.068;2023-09-19T02:28:13;3;3;
80413;PMS5003;69758;52.580;13.068;2023-09-19T02:30:38;2;2;
80413;PMS5003;69758;52.580;13.068;2023-09-19T02:33:04;3;3;
80413;PMS5003;69758;52.580;13.068;2023-09-19T02:35:28;4;4;
80413;PMS5003;69758;52.580;13.068;2023-09-19T02:37:53;2;2;
80413;PMS5003;69758;52.580;13.068;2023-09-19T02:40:19;3;3;
80413;PMS5003;69758;52.580;13.068;2023-09-19T02:42:44;3;3;
80413;PMS5003;69758;52.580;13.068;2023-09-19T02:45:09;4;4;
80413;PMS5003;69758;52.580;13.068;2023-09-19T02:47:34;1;1;
80413;PMS5003;69758;52.580;13.068;2023-09-19T02:49:59;2;2;
80413;PMS5003;69758;52.580;13.068;2023-09-19T02:52:24;2;1;
80413;PMS5003;69758;52.580;13.068;2023-09-19T02:54:49;2;2;
80413;PMS5003;69758;52.580;13.068;2023-09-19T02:57:14;2;2;
80413;PMS5003;69758;52.580;13.068;2023-09-19T02:59:39;2;2;
80413;PMS5003;69758;52.580;13.068;2023-09-19T03:02:04;3;3;
80413;PMS5003;69758;52.580;13.068;2023-09-19T03:04:29;4;3;
80413;PMS5003;69758;52.580;13.068;2023-09-19T03:06:54;4;4;
80413;PMS5003;69758;52.580;13.068;2023-09-19T03:09:19;3;3;
80413;PMS5003;69758;52.580;13.068;2023-09-19T03:11:44;2;2;
80413;PMS5003;69758;52.580;13.068;2023-09-19T03:14:10;4;4;
80413;PMS5003;69758;52.580;13.068;2023-09-19T03:16:35;2;2;
80413;PMS5003;69758;52.580;13.068;2023-09-19T03:19:00;2;2;
80413;PMS5003;69758;52.580;13.068;2023-09-19T03:21:25;3;3;
80413;PMS5003;69758;52.580;13.068;2023-09-19T03:23:50;2;2;
80413;PMS5003;69758;52.580;13.068;2023-09-19T03:26:15;1;1;
80413;PMS5003;69758;52.580;13.068;2023-09-19T03:28:40;2;2;
80413;PMS5003;69758;52.580;13.068;2023-09-19T03:31:06;2;2;
80413;PMS5003;69758;52.580;13.068;2023-09-19T03:33:30;1;1;
80413;PMS5003;69758;52.580;13.068;2023-09-19T03:35:55;4;4;
80413;PMS5003;69758;52.580;13.068;2023-09-19T03:38:20;2;2;
80413;PMS5003;69758;52.580;13.068;2023-09-19T03:40:45;1;1;
80413;PMS5003;69758;52.580;13.068;2023-09-19T03:43:10;2;2;
80413;PMS5003;69758;52.580;13.068;2023-09-19T03:45:36;2;2;
80413;PMS5003;69758;52.580;13.068;2023-09-19T03:48:01;2;2;
80413;PMS5003;69758;52.580;13.068;2023-09-19T03:50:26;1;1;
80413;PMS5003;69758;52.580;13.068;2023-09-19T03:52:55;2;2;
80413;PMS5003;69758;52.580;13.068;2023-09-19T03:55:16;3;3;
80413;PMS5003;69758;52.580;13.068;2023-09-19T03:57:41;1;1;
80413;PMS5003;69758;52.580;13.068;2023-09-19T04:00:06;1;1;
80413;PMS5003;69758;52.580;13.068;2023-09-19T04:02:31;1;1;
80413;PMS5003;69758;52.580;13.068;2023-09-19T04:04:56;1;1;
80413;PMS5003;69758;52.580;13.068;2023-09-19T04:07:21;0;0;
80413;PMS5003;69758;52.580;13.068;2023-09-19T04:09:46;3;3;
80413;PMS5003;69758;52.580;13.068;2023-09-19T04:12:11;3;2;
80413;PMS5003;69758;52.580;13.068;2023-09-19T04:14:36;1;1;
80413;PMS5003;69758;52.580;13.068;2023-09-19T04:17:02;1;1;
80413;PMS5003;69758;52.580;13.068;2023-09-19T04:19:27;2;2;
80413;PMS5003;69758;52.580;13.068;2023-09-19T04:21:52;2;2;
80413;PMS5003;69758;52.580;13.068;2023-09-19T04:24:17;3;2;
80413;PMS5003;69758;52.580;13.068;2023-09-19T04:26:42;2;2;
80413;PMS5003;69758;52.580;13.068;2023-09-19T04:29:07;4;4;
80413;PMS5003;69758;52.580;13.068;2023-09-19T04:31:32;3;2;
80413;PMS5003;69758;52.580;13.068;2023-09-19T04:33:57;3;3;
80413;PMS5003;69758;52.580;13.068;2023-09-19T04:36:23;3;3;
80413;PMS5003;69758;52.580;13.068;2023-09-19T04:38:47;3;2;
80413;PMS5003;69758;52.580;13.068;2023-09-19T04:41:12;3;3;
80413;PMS5003;69758;52.580;13.068;2023-09-19T04:43:37;2;2;
80413;PMS5003;69758;52.580;13.068;2023-09-19T04:46:03;3;3;
80413;PMS5003;69758;52.580;13.068;2023-09-19T04:48:28;3;3;
80413;PMS5003;69758;52.580;13.068;2023-09-19T04:50:53;2;2;
80413;PMS5003;69758;52.580;13.068;2023-09-19T04:53:18;2;2;
80413;PMS5003;69758;52.580;13.068;2023-09-19T04:55:43;1;1;
80413;PMS5003;69758;52.580;13.068;2023-09-19T04:58:08;2;2;
80413;PMS5003;69758;52.580;13.068;2023-09-19T05:00:33;3;3;
80413;PMS5003;69758;52.580;13.068;2023-09-19T05:02:58;3;3;
80413;PMS5003;69758;52.580;13.068;2023-09-19T05:05:23;2;2;
80413;PMS5003;69758;52.580;13.068;2023-09-19T05:07:49;2;2;
80413;PMS5003;69758;52.580;13.068;2023-09-19T05:10:14;2;2;
80413;PMS5003;69758;52.580;13.068;2023-09-19T05:12:40;3;3;
80413;PMS5003;69758;52.580;13.068;2023-09-19T05:15:04;2;2;
80413;PMS5003;69758;52.580;13.068;2023-09-19T05:17:29;3;3;
80413;PMS5003;69758;52.580;13.068;2023-09-19T05:19:54;3;3;
80413;PMS5003;69758;52.580;13.068;2023-09-19T05:22:19;1;1;
80413;PMS5003;69758;52.580;13.068;2023-09-19T05:24:44;2;2;
80413;PMS5003;69758;52.580;13.068;2023-09-19T05:27:09;3;3;
80413;PMS5003;69758;52.580;13.068;2023-09-19T05:29:34;2;2;
80413;PMS5003;69758;52.580;13.068;2023-09-19T05:31:59;2;2;
80413;PMS5003;69758;52.580;13.068;2023-09-19T05:34:25;2;2;
80413;PMS5003;69758;52.580;13.068;2023-09-19T05:36:50;1;1;
80413;PMS5003;69758;52.580;13.068;2023-09-19T05:39:15;2;2;
80413;PMS5003;69758;52.580;13.068;2023-09-19T05:41:40;2;2;
80413;PMS5003;69758;52.580;13.068;2023-09-19T05:44:05;3;2;
80413;PMS5003;69758;52.580;13.068;2023-09-19T05:46:30;2;2;
80413;PMS5003;69758;52.580;13.068;2023-09-19T05:48:55;3;3;
80413;PMS5003;69758;52.580;13.068;2023-09-19T05:51:21;3;3;
80413;PMS5003;69758;52.580;13.068;2023-09-19T05:53:45;3;3;
80413;PMS5003;69758;52.580;13.068;2023-09-19T05:56:11;2;2;
80413;PMS5003;69758;52.580;13.068;2023-09-19T05:58:36;5;3;
80413;PMS5003;69758;52.580;13.068;2023-09-19T06:01:01;2;2;
80413;PMS5003;69758;52.580;13.068;2023-09-19T06:03:26;4;3;
80413;PMS5003;69758;52.580;13.068;2023-09-19T06:05:51;3;3;
80413;PMS5003;69758;52.580;13.068;2023-09-19T06:08:16;3;3;
80413;PMS5003;69758;52.580;13.068;2023-09-19T06:10:41;2;2;
80413;PMS5003;69758;52.580;13.068;2023-09-19T06:13:06;2;2;
80413;PMS5003;69758;52.580;13.068;2023-09-19T06:15:31;4;4;
80413;PMS5003;69758;52.580;13.068;2023-09-19T06:17:57;2;2;
80413;PMS5003;69758;52.580;13.068;2023-09-19T06:20:22;4;3;
80413;PMS5003;69758;52.580;13.068;2023-09-19T06:22:47;3;2;
80413;PMS5003;69758;52.580;13.068;2023-09-19T06:25:12;3;3;
80413;PMS5003;69758;52.580;13.068;2023-09-19T06:27:37;3;3;
80413;PMS5003;69758;52.580;13.068;2023-09-19T06:30:02;5;4;
80413;PMS5003;69758;52.580;13.068;2023-09-19T06:32:27;3;3;
80413;PMS5003;69758;52.580;13.068;2023-09-19T06:34:52;3;3;
80413;PMS5003;69758;52.580;13.068;2023-09-19T06:37:17;4;4;
80413;PMS5003;69758;52.580;13.068;2023-09-19T06:39:42;3;3;
80413;PMS5003;69758;52.580;13.068;2023-09-19T06:42:08;5;5;
80413;PMS5003;69758;52.580;13.068;2023-09-19T06:44:33;3;3;
80413;PMS5003;69758;52.580;13.068;2023-09-19T06:46:58;4;4;
80413;PMS5003;69758;52.580;13.068;2023-09-19T06:49:23;4;4;
80413;PMS5003;69758;52.580;13.068;2023-09-19T06:51:48;4;4;
80413;PMS5003;69758;52.580;13.068;2023-09-19T06:54:13;5;5;
80413;PMS5003;69758;52.580;13.068;2023-09-19T06:56:38;3;2;
80413;PMS5003;69758;52.580;13.068;2023-09-19T06:59:03;4;4;
80413;PMS5003;69758;52.580;13.068;2023-09-19T07:01:29;3;3;
80413;PMS5003;69758;52.580;13.068;2023-09-19T07:03:54;2;2;
80413;PMS5003;69758;52.580;13.068;2023-09-19T07:06:19;5;5;
80413;PMS5003;69758;52.580;13.068;2023-09-19T07:08:43;5;4;
80413;PMS5003;69758;52.580;13.068;2023-09-19T07:11:09;5;4;
80413;PMS5003;69758;52.580;13.068;2023-09-19T07:13:34;4;4;
80413;PMS5003;69758;52.580;13.068;2023-09-19T07:15:59;3;3;
80413;PMS5003;69758;52.580;13.068;2023-09-19T07:18:24;4;4;
80413;PMS5003;69758;52.580;13.068;2023-09-19T07:20:49;3;3;
80413;PMS5003;69758;52.580;13.068;2023-09-19T07:23:14;4;4;
80413;PMS5003;69758;52.580;13.068;2023-09-19T07:25:39;2;2;
80413;PMS5003;69758;52.580;13.068;2023-09-19T07:28:04;5;5;
80413;PMS5003;69758;52.580;13.068;2023-09-19T07:30:29;5;5;
80413;PMS5003;69758;52.580;13.068;2023-09-19T07:32:54;6;5;
80413;PMS5003;69758;52.580;13.068;2023-09-19T07:35:19;5;5;
80413;PMS5003;69758;52.580;13.068;2023-09-19T07:37:44;5;5;
80413;PMS5003;69758;52.580;13.068;2023-09-19T07:40:10;5;5;
80413;PMS5003;69758;52.580;13.068;2023-09-19T07:42:35;5;5;
80413;PMS5003;69758;52.580;13.068;2023-09-19T07:45:00;6;6;
80413;PMS5003;69758;52.580;13.068;2023-09-19T07:47:25;6;5;
80413;PMS5003;69758;52.580;13.068;2023-09-19T07:49:50;6;5;
80413;PMS5003;69758;52.580;13.068;2023-09-19T07:52:15;4;4;
80413;PMS5003;69758;52.580;13.068;2023-09-19T07:54:40;6;6;
80413;PMS5003;69758;52.580;13.068;2023-09-19T07:57:06;6;6;
80413;PMS5003;69758;52.580;13.068;2023-09-19T07:59:31;4;4;
80413;PMS5003;69758;52.580;13.068;2023-09-19T08:01:56;6;6;
80413;PMS5003;69758;52.580;13.068;2023-09-19T08:04:21;5;5;
80413;PMS5003;69758;52.580;13.068;2023-09-19T08:06:46;7;7;
80413;PMS5003;69758;52.580;13.068;2023-09-19T08:09:11;6;6;
80413;PMS5003;69758;52.580;13.068;2023-09-19T08:11:36;6;6;
80413;PMS5003;69758;52.580;13.068;2023-09-19T08:14:01;5;5;
80413;PMS5003;69758;52.580;13.068;2023-09-19T08:16:27;4;4;
80413;PMS5003;69758;52.580;13.068;2023-09-19T08:18:51;8;8;
80413;PMS5003;69758;52.580;13.068;2023-09-19T08:21:16;6;6;
80413;PMS5003;69758;52.580;13.068;2023-09-19T08:23:42;5;5;
80413;PMS5003;69758;52.580;13.068;2023-09-19T08:26:07;5;5;
80413;PMS5003;69758;52.580;13.068;2023-09-19T08:28:32;5;5;
80413;PMS5003;69758;52.580;13.068;2023-09-19T08:31:00;6;5;
80413;PMS5003;69758;52.580;13.068;2023-09-19T08:33:22;7;6;
80413;PMS5003;69758;52.580;13.068;2023-09-19T08:35:47;5;5;
80413;PMS5003;69758;52.580;13.068;2023-09-19T08:38:12;5;5;
80413;PMS5003;69758;52.580;13.068;2023-09-19T08:40:37;5;5;
80413;PMS5003;69758;52.580;13.068;2023-09-19T08:43:02;4;4;
80413;PMS5003;69758;52.580;13.068;2023-09-19T08:45:27;7;6;
80413;PMS5003;69758;52.580;13.068;2023-09-19T08:47:56;6;5;
80413;PMS5003;69758;52.580;13.068;2023-09-19T08:50:19;5;4;
80413;PMS5003;69758;52.580;13.068;2023-09-19T08:52:43;5;5;
80413;PMS5003;69758;52.580;13.068;2023-09-19T08:55:08;5;5;
80413;PMS5003;69758;52.580;13.068;2023-09-19T08:57:33;4;4;
80413;PMS5003;69758;52.580;13.068;2023-09-19T08:59:58;6;5;
80413;PMS5003;69758;52.580;13.068;2023-09-19T09:02:23;6;6;
80413;PMS5003;69758;52.580;13.068;2023-09-19T09:04:48;5;5;
80413;PMS5003;69758;52.580;13.068;2023-09-19T09:07:13;5;5;
80413;PMS5003;69758;52.580;13.068;2023-09-19T09:09:38;4;4;
80413;PMS5003;69758;52.580;13.068;2023-09-19T09:12:03;4;4;
80413;PMS5003;69758;52.580;13.068;2023-09-19T09:14:28;5;5;
80413;PMS5003;69758;52.580;13.068;2023-09-19T09:16:53;6;5;
80413;PMS5003;69758;52.580;13.068;2023-09-19T09:19:18;6;6;
80413;PMS5003;69758;52.580;13.068;2023-09-19T09:21:43;6;6;
80413;PMS5003;69758;52.580;13.068;2023-09-19T09:26:42;6;6;
80413;PMS5003;69758;52.580;13.068;2023-09-19T09:28:59;5;4;
80413;PMS5003;69758;52.580;13.068;2023-09-19T09:31:24;6;6;
80413;PMS5003;69758;52.580;13.068;2023-09-19T09:33:52;6;6;
80413;PMS5003;69758;52.580;13.068;2023-09-19T09:36:14;7;7;
80413;PMS5003;69758;52.580;13.068;2023-09-19T09:38:43;6;6;
80413;PMS5003;69758;52.580;13.068;2023-09-19T09:41:04;6;6;
80413;PMS5003;69758;52.580;13.068;2023-09-19T09:43:31;5;5;
80413;PMS5003;69758;52.580;13.068;2023-09-19T09:48:23;6;6;
80413;PMS5003;69758;52.580;13.068;2023-09-19T09:50:46;6;5;
80413;PMS5003;69758;52.580;13.068;2023-09-19T10:00:25;5;5;
80413;PMS5003;69758;52.580;13.068;2023-09-19T10:02:50;4;4;
80413;PMS5003;69758;52.580;13.068;2023-09-19T10:05:16;7;6;
80413;PMS5003;69758;52.580;13.068;2023-09-19T10:07:41;5;5;
80413;PMS5003;69758;52.580;13.068;2023-09-19T10:10:06;6;6;
80413;PMS5003;69758;52.580;13.068;2023-09-19T10:12:31;5;5;
80413;PMS5003;69758;52.580;13.068;2023-09-19T10:14:56;7;7;
80413;PMS5003;69758;52.580;13.068;2023-09-19T10:17:21;6;6;
80413;PMS5003;69758;52.580;13.068;2023-09-19T10:19:50;4;4;
80413;PMS5003;69758;52.580;13.068;2023-09-19T10:22:11;4;4;
80413;PMS5003;69758;52.580;13.068;2023-09-19T10:24:36;6;6;
80413;PMS5003;69758;52.580;13.068;2023-09-19T10:27:01;6;6;
80413;PMS5003;69758;52.580;13.068;2023-09-19T10:29:27;5;4;
80413;PMS5003;69758;52.580;13.068;2023-09-19T10:31:52;3;3;
80413;PMS5003;69758;52.580;13.068;2023-09-19T10:34:17;7;7;
80413;PMS5003;69758;52.580;13.068;2023-09-19T10:36:44;6;6;
80413;PMS5003;69758;52.580;13.068;2023-09-19T10:39:07;5;5;
80413;PMS5003;69758;52.580;13.068;2023-09-19T10:41:32;7;7;
80413;PMS5003;69758;52.580;13.068;2023-09-19T10:43:57;5;4;
80413;PMS5003;69758;52.580;13.068;2023-09-19T10:46:22;5;5;
80413;PMS5003;69758;52.580;13.068;2023-09-19T10:48:47;4;4;
80413;PMS5003;69758;52.580;13.068;2023-09-19T10:51:14;6;6;
80413;PMS5003;69758;52.580;13.068;2023-09-19T10:53:42;5;5;
80413;PMS5003;69758;52.580;13.068;2023-09-19T10:56:03;5;4;
80413;PMS5003;69758;52.580;13.068;2023-09-19T10:58:28;6;5;
80413;PMS5003;69758;52.580;13.068;2023-09-19T11:00:53;5;5;
80413;PMS5003;69758;52.580;13.068;2023-09-19T11:03:19;4;4;
80413;PMS5003;69758;52.580;13.068;2023-09-19T11:05:43;4;3;
80413;PMS5003;69758;52.580;13.068;2023-09-19T11:08:08;4;4;
80413;PMS5003;69758;52.580;13.068;2023-09-19T11:12:58;4;3;
80413;PMS5003;69758;52.580;13.068;2023-09-19T11:17:48;2;2;
80413;PMS5003;69758;52.580;13.068;2023-09-19T11:20:19;4;4;
80413;PMS5003;69758;52.580;13.068;2023-09-19T11:27:28;2;2;
80413;PMS5003;69758;52.580;13.068;2023-09-19T11:32:18;2;2;
80413;PMS5003;69758;52.580;13.068;2023-09-19T11:34:44;1;1;
80413;PMS5003;69758;52.580;13.068;2023-09-19T11:39:33;3;2;
80413;PMS5003;69758;52.580;13.068;2023-09-19T11:41:58;4;3;
80413;PMS5003;69758;52.580;13.068;2023-09-19T11:44:32;1;1;
80413;PMS5003;69758;52.580;13.068;2023-09-19T11:46:51;2;2;
80413;PMS5003;69758;52.580;13.068;2023-09-19T11:49:13;2;2;
80413;PMS5003;69758;52.580;13.068;2023-09-19T11:51:39;5;4;
80413;PMS5003;69758;52.580;13.068;2023-09-19T11:54:03;1;1;
80413;PMS5003;69758;52.580;13.068;2023-09-19T11:56:28;0;0;
80413;PMS5003;69758;52.580;13.068;2023-09-19T11:58:54;2;2;
80413;PMS5003;69758;52.580;13.068;2023-09-19T12:01:21;3;2;
80413;PMS5003;69758;52.580;13.068;2023-09-19T12:03:45;1;1;
80413;PMS5003;69758;52.580;13.068;2023-09-19T12:06:12;2;2;
80413;PMS5003;69758;52.580;13.068;2023-09-19T12:08:33;2;2;
80413;PMS5003;69758;52.580;13.068;2023-09-19T12:10:58;3;3;
80413;PMS5003;69758;52.580;13.068;2023-09-19T12:13:23;2;2;
80413;PMS5003;69758;52.580;13.068;2023-09-19T12:15:48;3;3;
80413;PMS5003;69758;52.580;13.068;2023-09-19T12:20:42;2;1;
80413;PMS5003;69758;52.580;13.068;2023-09-19T12:23:03;1;1;
80413;PMS5003;69758;52.580;13.068;2023-09-19T12:27:54;3;3;
80413;PMS5003;69758;52.580;13.068;2023-09-19T12:30:19;1;1;
80413;PMS5003;69758;52.580;13.068;2023-09-19T12:32:43;2;2;
80413;PMS5003;69758;52.580;13.068;2023-09-19T12:35:08;2;2;
80413;PMS5003;69758;52.580;13.068;2023-09-19T12:37:33;1;1;
80413;PMS5003;69758;52.580;13.068;2023-09-19T12:40:04;3;2;
80413;PMS5003;69758;52.580;13.068;2023-09-19T12:42:24;2;1;
80413;PMS5003;69758;52.580;13.068;2023-09-19T12:44:49;2;2;
80413;PMS5003;69758;52.580;13.068;2023-09-19T12:47:14;2;2;
80413;PMS5003;69758;52.580;13.068;2023-09-19T12:52:04;2;2;
80413;PMS5003;69758;52.580;13.068;2023-09-19T12:56:54;4;4;
80413;PMS5003;69758;52.580;13.068;2023-09-19T12:59:19;1;1;
80413;PMS5003;69758;52.580;13.068;2023-09-19T13:01:44;1;1;
80413;PMS5003;69758;52.580;13.068;2023-09-19T13:04:10;2;1;
80413;PMS5003;69758;52.580;13.068;2023-09-19T13:06:35;2;2;
80413;PMS5003;69758;52.580;13.068;2023-09-19T13:11:35;3;3;
80413;PMS5003;69758;52.580;13.068;2023-09-19T13:13:50;0;0;
80413;PMS5003;69758;52.580;13.068;2023-09-19T13:16:14;2;2;
80413;PMS5003;69758;52.580;13.068;2023-09-19T13:18:42;1;1;
80413;PMS5003;69758;52.580;13.068;2023-09-19T13:21:05;1;1;
80413;PMS5003;69758;52.580;13.068;2023-09-19T13:23:29;1;0;
80413;PMS5003;69758;52.580;13.068;2023-09-19T13:25:54;2;2;
80413;PMS5003;69758;52.580;13.068;2023-09-19T13:28:19;2;1;
80413;PMS5003;69758;52.580;13.068;2023-09-19T13:30:44;1;1;
80413;PMS5003;69758;52.580;13.068;2023-09-19T13:33:09;2;2;
80413;PMS5003;69758;52.580;13.068;2023-09-19T13:35:34;2;2;
80413;PMS5003;69758;52.580;13.068;2023-09-19T13:37:59;2;2;
80413;PMS5003;69758;52.580;13.068;2023-09-19T13:40:24;2;2;
80413;PMS5003;69758;52.580;13.068;2023-09-19T13:42:49;0;0;
80413;PMS5003;69758;52.580;13.068;2023-09-19T13:45:14;2;1;
80413;PMS5003;69758;52.580;13.068;2023-09-19T13:47:39;2;2;
80413;PMS5003;69758;52.580;13.068;2023-09-19T13:50:04;2;2;
80413;PMS5003;69758;52.580;13.068;2023-09-19T13:52:29;2;2;
80413;PMS5003;69758;52.580;13.068;2023-09-19T13:54:54;2;1;
80413;PMS5003;69758;52.580;13.068;2023-09-19T13:57:19;3;3;
80413;PMS5003;69758;52.580;13.068;2023-09-19T13:59:44;2;1;
80413;PMS5003;69758;52.580;13.068;2023-09-19T14:02:09;1;1;
80413;PMS5003;69758;52.580;13.068;2023-09-19T14:04:34;2;1;
80413;PMS5003;69758;52.580;13.068;2023-09-19T14:06:59;2;2;
80413;PMS5003;69758;52.580;13.068;2023-09-19T14:09:24;2;1;
80413;PMS5003;69758;52.580;13.068;2023-09-19T14:11:49;2;2;
80413;PMS5003;69758;52.580;13.068;2023-09-19T14:14:14;0;0;
80413;PMS5003;69758;52.580;13.068;2023-09-19T14:16:40;2;2;
80413;PMS5003;69758;52.580;13.068;2023-09-19T14:19:04;1;1;
80413;PMS5003;69758;52.580;13.068;2023-09-19T14:21:29;2;2;
80413;PMS5003;69758;52.580;13.068;2023-09-19T14:23:54;3;3;
80413;PMS5003;69758;52.580;13.068;2023-09-19T14:26:19;2;2;
80413;PMS5003;69758;52.580;13.068;2023-09-19T14:28:45;2;2;
80413;PMS5003;69758;52.580;13.068;2023-09-19T14:31:10;2;2;
80413;PMS5003;69758;52.580;13.068;2023-09-19T14:33:34;2;2;
80413;PMS5003;69758;52.580;13.068;2023-09-19T14:36:02;4;3;
80413;PMS5003;69758;52.580;13.068;2023-09-19T14:38:24;3;3;
80413;PMS5003;69758;52.580;13.068;2023-09-19T14:40:53;3;2;
80413;PMS5003;69758;52.580;13.068;2023-09-19T14:43:15;3;3;
80413;PMS5003;69758;52.580;13.068;2023-09-19T14:45:40;2;2;
80413;PMS5003;69758;52.580;13.068;2023-09-19T14:48:05;3;3;
80413;PMS5003;69758;52.580;13.068;2023-09-19T14:50:30;4;4;
80413;PMS5003;69758;52.580;13.068;2023-09-19T14:52:55;4;4;
80413;PMS5003;69758;52.580;13.068;2023-09-19T14:55:20;3;3;
80413;PMS5003;69758;52.580;13.068;2023-09-19T14:57:48;4;4;
80413;PMS5003;69758;52.580;13.068;2023-09-19T15:00:11;3;3;
80413;PMS5003;69758;52.580;13.068;2023-09-19T15:02:35;2;2;
80413;PMS5003;69758;52.580;13.068;2023-09-19T15:05:00;1;1;
80413;PMS5003;69758;52.580;13.068;2023-09-19T15:07:25;2;2;
80413;PMS5003;69758;52.580;13.068;2023-09-19T15:09:50;3;3;
80413;PMS5003;69758;52.580;13.068;2023-09-19T15:12:15;2;2;
80413;PMS5003;69758;52.580;13.068;2023-09-19T15:14:40;2;2;
80413;PMS5003;69758;52.580;13.068;2023-09-19T15:17:05;3;3;
80413;PMS5003;69758;52.580;13.068;2023-09-19T15:19:30;1;1;
80413;PMS5003;69758;52.580;13.068;2023-09-19T15:21:55;3;3;
80413;PMS5003;69758;52.580;13.068;2023-09-19T15:24:20;2;2;
80413;PMS5003;69758;52.580;13.068;2023-09-19T15:26:45;3;3;
80413;PMS5003;69758;52.580;13.068;2023-09-19T15:29:10;2;2;
80413;PMS5003;69758;52.580;13.068;2023-09-19T15:31:36;3;3;
80413;PMS5003;69758;52.580;13.068;2023-09-19T15:34:01;4;3;
80413;PMS5003;69758;52.580;13.068;2023-09-19T15:36:26;3;3;
80413;PMS5003;69758;52.580;13.068;2023-09-19T15:38:55;3;3;
80413;PMS5003;69758;52.580;13.068;2023-09-19T15:41:15;4;3;
80413;PMS5003;69758;52.580;13.068;2023-09-19T15:43:40;3;3;
80413;PMS5003;69758;52.580;13.068;2023-09-19T15:46:05;2;2;
80413;PMS5003;69758;52.580;13.068;2023-09-19T15:48:32;2;2;
80413;PMS5003;69758;52.580;13.068;2023-09-19T15:51:02;1;1;
80413;PMS5003;69758;52.580;13.068;2023-09-19T15:53:23;2;2;
80413;PMS5003;69758;52.580;13.068;2023-09-19T15:55:48;4;4;
80413;PMS5003;69758;52.580;13.068;2023-09-19T15:58:13;3;3;
80413;PMS5003;69758;52.580;13.068;2023-09-19T16:00:39;4;4;
80413;PMS5003;69758;52.580;13.068;2023-09-19T16:03:03;2;2;
80413;PMS5003;69758;52.580;13.068;2023-09-19T16:05:28;3;2;
80413;PMS5003;69758;52.580;13.068;2023-09-19T16:07:53;2;2;
80413;PMS5003;69758;52.580;13.068;2023-09-19T16:10:18;2;2;
80413;PMS5003;69758;52.580;13.068;2023-09-19T16:12:43;4;3;
80413;PMS5003;69758;52.580;13.068;2023-09-19T16:15:08;3;3;
80413;PMS5003;69758;52.580;13.068;2023-09-19T16:17:33;2;1;
80413;PMS5003;69758;52.580;13.068;2023-09-19T16:19:58;3;2;
80413;PMS5003;69758;52.580;13.068;2023-09-19T16:22:23;3;3;
80413;PMS5003;69758;52.580;13.068;2023-09-19T16:24:48;1;1;
80413;PMS5003;69758;52.580;13.068;2023-09-19T16:27:18;2;2;
80413;PMS5003;69758;52.580;13.068;2023-09-19T16:29:38;3;3;
80413;PMS5003;69758;52.580;13.068;2023-09-19T16:32:03;3;2;
80413;PMS5003;69758;52.580;13.068;2023-09-19T16:34:28;4;4;
80413;PMS5003;69758;52.580;13.068;2023-09-19T16:36:53;3;3;
80413;PMS5003;69758;52.580;13.068;2023-09-19T16:39:18;1;1;
80413;PMS5003;69758;52.580;13.068;2023-09-19T16:41:43;2;2;
80413;PMS5003;69758;52.580;13.068;2023-09-19T16:44:08;3;2;
80413;PMS5003;69758;52.580;13.068;2023-09-19T16:46:34;6;4;
80413;PMS5003;69758;52.580;13.068;2023-09-19T16:48:58;3;3;
80413;PMS5003;69758;52.580;13.068;2023-09-19T16:51:23;3;3;
80413;PMS5003;69758;52.580;13.068;2023-09-19T16:53:48;3;3;
80413;PMS5003;69758;52.580;13.068;2023-09-19T16:56:13;2;2;
80413;PMS5003;69758;52.580;13.068;2023-09-19T16:58:39;3;3;